Time;durP1;ratioP1;P1;durP2;ratioP2;P2;SDS_P1;SDS_P2;PMS_P1;PMS_P2;Temp;Humidity;BMP_temperature;BMP_pressure;BME280_temperature;BME280_humidity;BME280_pressure;Samples;Min_cycle;Max_cycle;Signal;HPM_P1;HPM_P2
2022/02/23 00:00:29;;;;;;;15.17;4.43;;;;;;;;;;5049836;28;21910;-69
2022/02/23 00:02:54;;;;;;;21.33;3.30;;;;;;;;;;5033184;28;20245;-69
2022/02/23 00:05:19;;;;;;;13.50;3.20;;;;;;;;;;5037055;28;20173;-69
2022/02/23 00:07:44;;;;;;;16.27;3.13;;;;;;;;;;5035246;28;20251;-68
2022/02/23 00:10:10;;;;;;;12.27;2.87;;;;;;;;;;5046149;28;20241;-69
2022/02/23 00:12:35;;;;;;;12.70;2.63;;;;;;;;;;5040015;28;20188;-69
2022/02/23 00:15:00;;;;;;;16.03;3.77;;;;;;;;;;5030868;28;20213;-70
2022/02/23 00:17:27;;;;;;;13.33;2.93;;;;;;;;;;5046216;28;20182;-69
2022/02/23 00:19:53;;;;;;;13.63;3.13;;;;;;;;;;5050532;28;20704;-69
2022/02/23 00:22:18;;;;;;;20.13;2.97;;;;;;;;;;5052191;28;20193;-70
2022/02/23 00:24:43;;;;;;;22.63;3.10;;;;;;;;;;5046823;28;20181;-69
2022/02/23 00:27:08;;;;;;;17.87;3.17;;;;;;;;;;5051116;28;20189;-68
2022/02/23 00:29:35;;;;;;;16.83;3.50;;;;;;;;;;5048285;28;20217;-69
2022/02/23 00:32:00;;;;;;;10.83;2.80;;;;;;;;;;5054370;28;20605;-68
2022/02/23 00:34:25;;;;;;;13.43;2.67;;;;;;;;;;5049060;28;20213;-68
2022/02/23 00:36:51;;;;;;;12.30;3.23;;;;;;;;;;5049938;28;20195;-68
2022/02/23 00:39:16;;;;;;;15.57;3.00;;;;;;;;;;5050383;28;20189;-69
2022/02/23 00:41:41;;;;;;;16.37;4.23;;;;;;;;;;5055486;28;20181;-69
2022/02/23 00:44:06;;;;;;;13.17;2.63;;;;;;;;;;5055083;28;20177;-68
2022/02/23 00:46:32;;;;;;;12.73;2.53;;;;;;;;;;5051105;28;20649;-71
2022/02/23 00:48:57;;;;;;;13.47;2.93;;;;;;;;;;5054710;28;20189;-71
2022/02/23 00:51:22;;;;;;;15.07;3.30;;;;;;;;;;5054767;28;20185;-70
2022/02/23 00:53:47;;;;;;;16.97;2.93;;;;;;;;;;5055136;28;20233;-71
2022/02/23 00:56:12;;;;;;;9.67;2.50;;;;;;;;;;5054248;28;20635;-70
2022/02/23 00:58:37;;;;;;;11.90;3.00;;;;;;;;;;5055097;28;20229;-70
2022/02/23 01:01:03;;;;;;;14.17;2.80;;;;;;;;;;5056926;28;20178;-70
2022/02/23 01:03:28;;;;;;;11.40;2.67;;;;;;;;;;5052515;28;20196;-70
2022/02/23 01:05:53;;;;;;;15.60;3.70;;;;;;;;;;5053969;28;20193;-70
2022/02/23 01:08:18;;;;;;;11.07;3.80;;;;;;;;;;5051463;28;20281;-71
2022/02/23 01:10:43;;;;;;;14.73;3.23;;;;;;;;;;5035245;28;20177;-70
2022/02/23 01:13:09;;;;;;;9.27;2.17;;;;;;;;;;5054928;28;20236;-71
2022/02/23 01:15:34;;;;;;;13.47;3.57;;;;;;;;;;5051754;28;20174;-70
2022/02/23 01:17:59;;;;;;;16.47;4.33;;;;;;;;;;5054966;28;20272;-70
2022/02/23 01:20:25;;;;;;;12.80;3.40;;;;;;;;;;5050354;28;20208;-70
2022/02/23 01:22:55;;;;;;;11.80;3.43;;;;;;;;;;5050971;28;20256;-70
2022/02/23 01:25:20;;;;;;;7.37;2.43;;;;;;;;;;5034793;28;20603;-70
2022/02/23 01:27:46;;;;;;;13.97;2.70;;;;;;;;;;5051027;28;20197;-71
2022/02/23 01:30:11;;;;;;;11.00;3.23;;;;;;;;;;5051377;28;20173;-69
2022/02/23 01:32:37;;;;;;;10.17;3.10;;;;;;;;;;5052760;28;20293;-70
2022/02/23 01:35:02;;;;;;;11.40;3.27;;;;;;;;;;5052117;28;20292;-69
2022/02/23 01:37:28;;;;;;;12.87;2.90;;;;;;;;;;5051783;28;20177;-70
2022/02/23 01:39:53;;;;;;;17.27;3.00;;;;;;;;;;5050802;28;20178;-70
2022/02/23 01:42:18;;;;;;;13.23;2.90;;;;;;;;;;5053009;28;20205;-70
2022/02/23 01:44:43;;;;;;;9.60;2.37;;;;;;;;;;5052110;28;20178;-70
2022/02/23 01:47:08;;;;;;;12.30;3.03;;;;;;;;;;5052520;28;20640;-71
2022/02/23 01:49:34;;;;;;;11.33;2.80;;;;;;;;;;5052582;28;20190;-70
2022/02/23 01:51:59;;;;;;;10.60;3.60;;;;;;;;;;5051713;28;20187;-70
2022/02/23 01:54:25;;;;;;;18.30;4.43;;;;;;;;;;5033082;28;20294;-70
2022/02/23 01:56:50;;;;;;;14.03;3.43;;;;;;;;;;5052078;28;20173;-69
2022/02/23 01:59:15;;;;;;;13.07;2.63;;;;;;;;;;5052140;28;20603;-70
2022/02/23 02:01:40;;;;;;;11.93;2.80;;;;;;;;;;5053236;28;20181;-70
2022/02/23 02:04:05;;;;;;;12.97;2.50;;;;;;;;;;5052194;28;20272;-69
2022/02/23 02:06:31;;;;;;;9.17;2.17;;;;;;;;;;5052558;28;20177;-69
2022/02/23 02:08:56;;;;;;;9.20;2.53;;;;;;;;;;5052213;28;20197;-69
2022/02/23 02:11:21;;;;;;;15.83;2.73;;;;;;;;;;5052284;28;20182;-69
2022/02/23 02:13:46;;;;;;;11.93;2.63;;;;;;;;;;5051422;28;20701;-69
2022/02/23 02:16:11;;;;;;;9.77;2.53;;;;;;;;;;5050877;28;20180;-68
2022/02/23 02:18:37;;;;;;;11.77;2.47;;;;;;;;;;5051459;28;20219;-69
2022/02/23 02:21:02;;;;;;;16.67;2.60;;;;;;;;;;5050856;28;20184;-69
2022/02/23 02:23:27;;;;;;;16.37;3.00;;;;;;;;;;5051460;28;20260;-68
2022/02/23 02:25:52;;;;;;;14.87;3.27;;;;;;;;;;5051042;28;20181;-68
2022/02/23 02:28:17;;;;;;;20.63;3.33;;;;;;;;;;5051273;28;20217;-70
2022/02/23 02:30:43;;;;;;;15.93;2.50;;;;;;;;;;5050833;28;20402;-69
2022/02/23 02:33:08;;;;;;;11.83;2.50;;;;;;;;;;5050708;28;20605;-69
2022/02/23 02:35:36;;;;;;;15.13;2.60;;;;;;;;;;5051413;28;20200;-69
2022/02/23 02:38:02;;;;;;;15.03;3.00;;;;;;;;;;5051665;28;20254;-69
2022/02/23 02:40:27;;;;;;;12.93;3.17;;;;;;;;;;5053045;28;20178;-69
2022/02/23 02:42:53;;;;;;;11.30;2.20;;;;;;;;;;5049103;28;20197;-69
2022/02/23 02:45:19;;;;;;;12.23;2.80;;;;;;;;;;5049729;28;20173;-69
2022/02/23 02:47:44;;;;;;;20.47;2.80;;;;;;;;;;5051535;28;20185;-69
2022/02/23 02:50:09;;;;;;;9.87;2.73;;;;;;;;;;5049343;28;20184;-69
2022/02/23 02:52:34;;;;;;;10.40;2.40;;;;;;;;;;5051964;28;20232;-69
2022/02/23 02:54:59;;;;;;;17.77;2.80;;;;;;;;;;5050191;28;20212;-69
2022/02/23 02:57:25;;;;;;;15.80;3.40;;;;;;;;;;5050296;28;20174;-69
2022/02/23 02:59:50;;;;;;;11.83;2.43;;;;;;;;;;5051199;28;20180;-69
2022/02/23 03:02:15;;;;;;;12.40;2.83;;;;;;;;;;5050887;28;20253;-68
2022/02/23 03:04:40;;;;;;;23.70;3.30;;;;;;;;;;5049684;28;20669;-70
2022/02/23 03:07:05;;;;;;;14.53;3.00;;;;;;;;;;5050282;28;20178;-69
2022/02/23 03:09:30;;;;;;;16.23;4.47;;;;;;;;;;5048016;28;20247;-69
2022/02/23 03:11:56;;;;;;;16.73;2.30;;;;;;;;;;5048226;28;20280;-69
2022/02/23 03:14:21;;;;;;;19.17;3.53;;;;;;;;;;5048721;28;20197;-70
2022/02/23 03:16:47;;;;;;;14.73;3.90;;;;;;;;;;5049977;28;20165;-69
2022/02/23 03:19:13;;;;;;;14.57;3.60;;;;;;;;;;5048771;28;20203;-69
2022/02/23 03:21:38;;;;;;;13.63;3.30;;;;;;;;;;5044579;28;20170;-68
2022/02/23 03:24:03;;;;;;;9.77;2.77;;;;;;;;;;5049917;28;20181;-69
2022/02/23 03:26:28;;;;;;;17.27;3.37;;;;;;;;;;5050293;28;20652;-69
2022/02/23 03:28:54;;;;;;;22.97;5.00;;;;;;;;;;5047092;28;20645;-69
2022/02/23 03:31:19;;;;;;;8.70;2.40;;;;;;;;;;5050006;28;20264;-69
2022/02/23 03:33:45;;;;;;;23.63;3.43;;;;;;;;;;5047760;28;20208;-69
2022/02/23 03:36:11;;;;;;;10.70;2.23;;;;;;;;;;5033309;28;20182;-69
2022/02/23 03:38:37;;;;;;;17.13;3.17;;;;;;;;;;5047627;28;20218;-70
2022/02/23 03:41:02;;;;;;;13.43;2.87;;;;;;;;;;5040195;28;20224;-69
2022/02/23 03:43:27;;;;;;;9.57;1.93;;;;;;;;;;5047304;28;20638;-68
2022/02/23 03:45:52;;;;;;;12.80;3.90;;;;;;;;;;5045015;28;20200;-69
2022/02/23 03:48:18;;;;;;;17.33;3.50;;;;;;;;;;5031651;28;20201;-69
2022/02/23 03:50:43;;;;;;;19.23;4.53;;;;;;;;;;5048692;28;20201;-69
2022/02/23 03:53:08;;;;;;;10.27;2.73;;;;;;;;;;5048715;28;20174;-68
2022/02/23 03:55:35;;;;;;;12.50;2.50;;;;;;;;;;5049204;28;20534;-69
2022/02/23 03:58:00;;;;;;;15.27;5.73;;;;;;;;;;5030840;28;20197;-68
2022/02/23 04:00:25;;;;;;;17.57;3.93;;;;;;;;;;5049586;28;20267;-69
2022/02/23 04:02:51;;;;;;;9.43;3.33;;;;;;;;;;5031976;28;20616;-69
2022/02/23 04:05:16;;;;;;;18.67;3.50;;;;;;;;;;5049880;28;20177;-69
2022/02/23 04:07:41;;;;;;;14.93;3.20;;;;;;;;;;5048555;28;20184;-69
2022/02/23 04:10:07;;;;;;;16.20;3.03;;;;;;;;;;5048925;28;20675;-68
2022/02/23 04:12:32;;;;;;;12.40;3.10;;;;;;;;;;5047805;28;20261;-69
2022/02/23 04:14:57;;;;;;;16.37;3.97;;;;;;;;;;5051152;28;20212;-69
2022/02/23 04:17:22;;;;;;;13.13;3.20;;;;;;;;;;5046891;28;20622;-71
2022/02/23 04:19:48;;;;;;;11.20;2.77;;;;;;;;;;5049993;28;20209;-69
2022/02/23 04:22:13;;;;;;;12.17;3.13;;;;;;;;;;5047466;28;20185;-69
2022/02/23 04:24:38;;;;;;;18.73;3.53;;;;;;;;;;5049472;28;20216;-70
2022/02/23 04:27:03;;;;;;;13.47;3.27;;;;;;;;;;5049514;28;20280;-71
2022/02/23 04:29:29;;;;;;;9.13;2.87;;;;;;;;;;5048673;28;20220;-68
2022/02/23 04:31:55;;;;;;;9.13;2.07;;;;;;;;;;5049906;28;20186;-68
2022/02/23 04:34:21;;;;;;;6.70;3.20;;;;;;;;;;5050851;28;20690;-69
2022/02/23 04:36:46;;;;;;;17.20;2.70;;;;;;;;;;5049210;28;20264;-69
2022/02/23 04:39:11;;;;;;;14.40;2.70;;;;;;;;;;5050453;28;20269;-68
2022/02/23 04:41:36;;;;;;;8.00;2.70;;;;;;;;;;5049086;28;20321;-69
2022/02/23 04:44:02;;;;;;;33.57;5.47;;;;;;;;;;5048635;28;20650;-67
2022/02/23 04:46:27;;;;;;;11.43;2.73;;;;;;;;;;5045617;28;20209;-68
2022/02/23 04:48:52;;;;;;;16.23;2.70;;;;;;;;;;5048416;28;20201;-68
2022/02/23 04:51:19;;;;;;;17.20;3.37;;;;;;;;;;5046234;28;20254;-68
2022/02/23 04:53:44;;;;;;;5.87;2.30;;;;;;;;;;5032383;28;20713;-69
2022/02/23 04:56:10;;;;;;;13.17;3.10;;;;;;;;;;5047746;28;20195;-68
2022/02/23 04:58:35;;;;;;;13.73;3.60;;;;;;;;;;5049627;28;20682;-68
2022/02/23 05:01:00;;;;;;;11.13;2.57;;;;;;;;;;5049793;28;20227;-69
2022/02/23 05:03:26;;;;;;;13.37;3.57;;;;;;;;;;5056128;28;20285;-68
2022/02/23 05:05:52;;;;;;;17.13;3.73;;;;;;;;;;5049205;28;20265;-69
2022/02/23 05:08:18;;;;;;;13.70;4.00;;;;;;;;;;5050051;28;20205;-71
2022/02/23 05:10:44;;;;;;;12.17;3.10;;;;;;;;;;5049568;28;21018;-69
2022/02/23 05:13:09;;;;;;;14.67;5.70;;;;;;;;;;5050041;28;20190;-69
2022/02/23 05:15:35;;;;;;;12.93;3.63;;;;;;;;;;5053124;28;20182;-69
2022/02/23 05:18:00;;;;;;;11.07;3.33;;;;;;;;;;5053867;28;20209;-69
2022/02/23 05:20:27;;;;;;;12.63;4.30;;;;;;;;;;5051768;28;20211;-69
2022/02/23 05:22:52;;;;;;;29.10;6.30;;;;;;;;;;5053300;28;20174;-69
2022/02/23 05:25:17;;;;;;;12.30;3.67;;;;;;;;;;5051867;28;20177;-69
2022/02/23 05:27:43;;;;;;;14.13;3.83;;;;;;;;;;5052434;28;20173;-69
2022/02/23 05:30:08;;;;;;;9.93;3.30;;;;;;;;;;5052933;28;20173;-69
2022/02/23 05:32:34;;;;;;;15.87;4.00;;;;;;;;;;5054124;28;20186;-70
2022/02/23 05:34:59;;;;;;;13.20;3.93;;;;;;;;;;5051898;28;20277;-69
2022/02/23 05:37:24;;;;;;;12.47;3.73;;;;;;;;;;5052252;28;20170;-69
2022/02/23 05:39:50;;;;;;;13.93;3.47;;;;;;;;;;5052682;28;20169;-69
2022/02/23 05:42:15;;;;;;;12.23;3.97;;;;;;;;;;5051786;28;20186;-69
2022/02/23 05:44:40;;;;;;;10.67;3.87;;;;;;;;;;5052467;28;20549;-69
2022/02/23 05:47:05;;;;;;;12.00;3.60;;;;;;;;;;5051935;28;20173;-68
2022/02/23 05:49:30;;;;;;;10.07;3.90;;;;;;;;;;5052695;28;20193;-70
2022/02/23 05:51:56;;;;;;;8.10;3.60;;;;;;;;;;5052898;28;20553;-69
2022/02/23 05:54:21;;;;;;;14.23;3.93;;;;;;;;;;5050447;28;20209;-69
2022/02/23 05:56:47;;;;;;;10.60;4.00;;;;;;;;;;5049290;28;20174;-69
2022/02/23 05:59:13;;;;;;;17.07;4.40;;;;;;;;;;5031974;28;20627;-68
2022/02/23 06:01:38;;;;;;;12.13;3.57;;;;;;;;;;5037666;28;20205;-69
2022/02/23 06:04:03;;;;;;;12.73;4.60;;;;;;;;;;5041008;28;20198;-69
2022/02/23 06:06:29;;;;;;;13.53;4.10;;;;;;;;;;5051469;28;20197;-69
2022/02/23 06:08:54;;;;;;;17.37;4.10;;;;;;;;;;5049060;28;20197;-69
2022/02/23 06:11:19;;;;;;;14.67;3.40;;;;;;;;;;5050459;28;20209;-69
2022/02/23 06:13:51;;;;;;;13.73;3.67;;;;;;;;;;5051561;28;20197;-68
2022/02/23 06:16:17;;;;;;;20.23;3.97;;;;;;;;;;5051879;28;20178;-69
2022/02/23 06:18:42;;;;;;;11.13;4.10;;;;;;;;;;5050826;28;20548;-71
2022/02/23 06:21:07;;;;;;;24.93;4.87;;;;;;;;;;5044860;28;20216;-68
2022/02/23 06:23:33;;;;;;;16.30;3.60;;;;;;;;;;5050732;28;20177;-68
2022/02/23 06:25:58;;;;;;;10.97;3.80;;;;;;;;;;5050843;28;20208;-70
2022/02/23 06:28:23;;;;;;;10.73;3.33;;;;;;;;;;5049726;28;20242;-69
2022/02/23 06:30:49;;;;;;;15.23;3.70;;;;;;;;;;5056043;28;20610;-69
2022/02/23 06:33:18;;;;;;;13.03;4.03;;;;;;;;;;5034227;28;20190;-69
2022/02/23 06:35:43;;;;;;;14.80;3.60;;;;;;;;;;5050959;28;20174;-72
2022/02/23 06:38:09;;;;;;;14.30;3.83;;;;;;;;;;5050319;28;20254;-70
2022/02/23 06:40:34;;;;;;;14.70;3.27;;;;;;;;;;5049942;28;20221;-70
2022/02/23 06:43:00;;;;;;;12.07;3.17;;;;;;;;;;5051716;28;20197;-73
2022/02/23 06:45:25;;;;;;;15.83;4.00;;;;;;;;;;5051343;28;20188;-70
2022/02/23 06:47:51;;;;;;;17.90;4.00;;;;;;;;;;5051657;28;20217;-70
2022/02/23 06:50:16;;;;;;;17.77;3.27;;;;;;;;;;5051465;28;20189;-69
2022/02/23 06:52:41;;;;;;;21.97;4.17;;;;;;;;;;5051872;28;20640;-70
2022/02/23 06:55:07;;;;;;;16.17;4.13;;;;;;;;;;5051097;28;20293;-70
2022/02/23 06:57:39;;;;;;;10.17;3.23;;;;;;;;;;5051759;28;20170;-70
2022/02/23 07:00:05;;;;;;;14.77;3.30;;;;;;;;;;5051093;28;20180;-71
2022/02/23 07:02:30;;;;;;;17.80;3.40;;;;;;;;;;5046759;28;20594;-70
2022/02/23 07:04:55;;;;;;;19.47;3.70;;;;;;;;;;5045993;28;20316;-69
2022/02/23 07:07:20;;;;;;;19.47;3.97;;;;;;;;;;5050448;28;20173;-70
2022/02/23 07:09:45;;;;;;;12.53;3.33;;;;;;;;;;5050635;28;20280;-70
2022/02/23 07:12:12;;;;;;;16.43;5.50;;;;;;;;;;5048985;28;20609;-69
2022/02/23 07:14:37;;;;;;;14.57;4.70;;;;;;;;;;5047087;28;20209;-69
2022/02/23 07:17:03;;;;;;;14.80;5.37;;;;;;;;;;5049509;28;20658;-70
2022/02/23 07:19:28;;;;;;;15.20;4.23;;;;;;;;;;5048980;28;20194;-70
2022/02/23 07:21:53;;;;;;;17.33;4.40;;;;;;;;;;5032430;28;20191;-70
2022/02/23 07:24:19;;;;;;;19.17;5.17;;;;;;;;;;5051176;28;20178;-69
2022/02/23 07:26:44;;;;;;;19.80;4.20;;;;;;;;;;5050651;28;20674;-70
2022/02/23 07:29:11;;;;;;;19.33;4.37;;;;;;;;;;5054230;28;20224;-69
2022/02/23 07:31:36;;;;;;;14.03;3.87;;;;;;;;;;5051186;28;20205;-70
2022/02/23 07:34:01;;;;;;;15.23;4.00;;;;;;;;;;5045034;28;20625;-69
2022/02/23 07:36:27;;;;;;;22.87;5.00;;;;;;;;;;5049740;28;20165;-70
2022/02/23 07:38:53;;;;;;;14.73;3.90;;;;;;;;;;5048901;28;20194;-69
2022/02/23 07:41:23;;;;;;;12.93;4.40;;;;;;;;;;5030124;28;20197;-69
2022/02/23 07:43:52;;;;;;;14.33;4.13;;;;;;;;;;5047554;28;20196;-69
2022/02/23 07:46:17;;;;;;;13.67;3.67;;;;;;;;;;5049782;28;20181;-70
2022/02/23 07:48:42;;;;;;;17.07;3.97;;;;;;;;;;5049793;28;20581;-70
2022/02/23 07:51:08;;;;;;;21.00;5.37;;;;;;;;;;5032481;28;20202;-70
2022/02/23 07:53:33;;;;;;;20.67;4.30;;;;;;;;;;5052866;28;20189;-69
2022/02/23 07:55:58;;;;;;;14.30;4.50;;;;;;;;;;5052688;28;20181;-70
2022/02/23 07:58:24;;;;;;;21.00;3.63;;;;;;;;;;5050871;28;20201;-70
2022/02/23 08:00:49;;;;;;;18.47;4.03;;;;;;;;;;5050984;28;20717;-70
2022/02/23 08:03:14;;;;;;;21.43;4.50;;;;;;;;;;5048060;28;20184;-70
2022/02/23 08:05:40;;;;;;;21.63;4.23;;;;;;;;;;5042356;28;20590;-68
2022/02/23 08:08:05;;;;;;;19.37;3.90;;;;;;;;;;5048196;28;20198;-70
2022/02/23 08:10:30;;;;;;;19.17;3.77;;;;;;;;;;5049571;28;20173;-70
2022/02/23 08:12:58;;;;;;;16.23;4.40;;;;;;;;;;5048579;28;20248;-70
2022/02/23 08:20:52;;;;;;;17.33;5.17;;;;;;;;;;5042859;28;20176;-70
2022/02/23 08:23:17;;;;;;;8.83;2.90;;;;;;;;;;5048069;28;20181;-70
2022/02/23 08:25:43;;;;;;;13.93;3.27;;;;;;;;;;5045922;28;20258;-70
2022/02/23 08:28:08;;;;;;;15.33;3.53;;;;;;;;;;5047908;28;20212;-70
2022/02/23 08:30:34;;;;;;;12.10;3.67;;;;;;;;;;5040710;28;20651;-69
2022/02/23 08:33:02;;;;;;;14.53;3.73;;;;;;;;;;5045312;28;20174;-70
2022/02/23 08:35:28;;;;;;;12.47;3.50;;;;;;;;;;5049742;28;20198;-69
2022/02/23 08:37:53;;;;;;;10.23;3.07;;;;;;;;;;5048665;28;20235;-70
2022/02/23 08:40:18;;;;;;;10.47;3.07;;;;;;;;;;5046425;28;20169;-70
2022/02/23 08:42:43;;;;;;;14.27;4.37;;;;;;;;;;5049898;28;20196;-69
2022/02/23 08:45:09;;;;;;;11.83;2.70;;;;;;;;;;5048952;28;20240;-70
2022/02/23 08:47:34;;;;;;;12.63;4.00;;;;;;;;;;5050332;28;20174;-70
2022/02/23 08:49:59;;;;;;;13.37;3.73;;;;;;;;;;5053082;28;20206;-71
2022/02/23 08:52:24;;;;;;;12.17;3.50;;;;;;;;;;5052977;28;20216;-70
2022/02/23 08:54:49;;;;;;;9.93;2.83;;;;;;;;;;5051680;28;20194;-69
2022/02/23 08:57:15;;;;;;;12.00;3.40;;;;;;;;;;5052701;28;20185;-70
2022/02/23 08:59:40;;;;;;;12.20;4.07;;;;;;;;;;5053361;28;20237;-70
2022/02/23 09:02:05;;;;;;;10.07;3.03;;;;;;;;;;5053041;28;20169;-70
2022/02/23 09:04:30;;;;;;;10.87;3.77;;;;;;;;;;5049082;28;20177;-70
2022/02/23 09:06:56;;;;;;;13.60;3.30;;;;;;;;;;5052065;28;20200;-70
2022/02/23 09:09:21;;;;;;;12.20;3.63;;;;;;;;;;5047808;28;20298;-70
2022/02/23 09:11:47;;;;;;;10.73;3.50;;;;;;;;;;5051429;28;20170;-70
2022/02/23 09:14:13;;;;;;;11.83;3.77;;;;;;;;;;5051924;28;20208;-71
2022/02/23 09:16:39;;;;;;;11.47;3.27;;;;;;;;;;5052089;28;20173;-71
2022/02/23 09:19:04;;;;;;;10.97;3.40;;;;;;;;;;5051629;28;20251;-71
2022/02/23 09:21:29;;;;;;;10.47;3.13;;;;;;;;;;5052545;28;20264;-70
2022/02/23 09:23:55;;;;;;;10.07;3.37;;;;;;;;;;5048631;28;20178;-70
2022/02/23 09:26:20;;;;;;;20.53;5.23;;;;;;;;;;5033279;28;20174;-70
2022/02/23 09:28:45;;;;;;;13.53;4.53;;;;;;;;;;5048368;28;20216;-70
2022/02/23 09:31:12;;;;;;;12.60;5.00;;;;;;;;;;5033515;28;20311;-70
2022/02/23 09:33:37;;;;;;;19.23;6.50;;;;;;;;;;5052864;28;20200;-70
2022/02/23 09:36:03;;;;;;;14.50;5.47;;;;;;;;;;5049753;28;20170;-69
2022/02/23 09:38:31;;;;;;;15.20;6.03;;;;;;;;;;5051743;28;20629;-69
2022/02/23 09:40:57;;;;;;;18.27;6.23;;;;;;;;;;5053495;28;20181;-69
2022/02/23 09:43:23;;;;;;;17.07;6.37;;;;;;;;;;5049912;28;20531;-70
2022/02/23 09:45:55;;;;;;;16.27;6.03;;;;;;;;;;5050628;28;20231;-70
2022/02/23 09:48:21;;;;;;;18.50;7.43;;;;;;;;;;5052033;28;20194;-70
2022/02/23 09:50:47;;;;;;;19.67;6.83;;;;;;;;;;5049901;28;20169;-69
2022/02/23 09:53:14;;;;;;;14.50;7.80;;;;;;;;;;5032962;28;20276;-70
2022/02/23 09:55:39;;;;;;;22.27;7.57;;;;;;;;;;5048179;28;20178;-71
2022/02/23 09:58:04;;;;;;;11.80;6.30;;;;;;;;;;5051051;28;20286;-69
2022/02/23 10:00:30;;;;;;;15.90;7.10;;;;;;;;;;5049146;28;20185;-69
2022/02/23 10:02:55;;;;;;;19.90;7.27;;;;;;;;;;5051268;28;20256;-70
2022/02/23 10:05:21;;;;;;;14.40;7.00;;;;;;;;;;5052555;28;20185;-69
2022/02/23 10:07:46;;;;;;;16.37;6.27;;;;;;;;;;5050375;28;20205;-70
2022/02/23 10:10:13;;;;;;;16.73;7.23;;;;;;;;;;5052595;28;20170;-70
2022/02/23 10:12:41;;;;;;;17.00;6.37;;;;;;;;;;5035578;28;20177;-69
2022/02/23 10:15:13;;;;;;;13.87;6.30;;;;;;;;;;5047129;28;20686;-69
2022/02/23 10:17:47;;;;;;;12.73;6.70;;;;;;;;;;5032653;28;20635;-70
2022/02/23 10:20:39;;;;;;;12.37;6.33;;;;;;;;;;5049464;28;20181;-70
2022/02/23 10:23:15;;;;;;;13.55;6.05;;;;;;;;;;5025465;28;20190;-71
2022/02/23 10:25:44;;;;;;;16.60;7.18;;;;;;;;;;5050818;28;20262;-70
2022/02/23 10:28:10;;;;;;;17.75;6.88;;;;;;;;;;5049818;28;20577;-71
2022/02/23 10:30:43;;;;;;;12.63;5.20;;;;;;;;;;5032913;28;20174;-69
2022/02/23 10:33:13;;;;;;;14.32;6.70;;;;;;;;;;5034899;28;20228;-70
2022/02/23 10:35:39;;;;;;;15.07;6.05;;;;;;;;;;5049766;28;20188;-71
2022/02/23 10:38:07;;;;;;;13.73;6.20;;;;;;;;;;5049726;28;20209;-70
2022/02/23 10:40:40;;;;;;;12.82;5.53;;;;;;;;;;5050047;28;20181;-70
2022/02/23 10:43:25;;;;;;;16.35;6.93;;;;;;;;;;5050474;28;20221;-70
2022/02/23 10:46:04;;;;;;;12.80;6.40;;;;;;;;;;5051718;28;20177;-70
2022/02/23 10:48:55;;;;;;;12.50;5.35;;;;;;;;;;5048457;28;20213;-69
2022/02/23 10:51:24;;;;;;;10.55;4.50;;;;;;;;;;5043998;28;20263;-70
2022/02/23 10:53:51;;;;;;;12.27;4.90;;;;;;;;;;5052211;28;20202;-70
2022/02/23 10:56:20;;;;;;;14.02;5.60;;;;;;;;;;5051323;28;20264;-70
2022/02/23 10:58:46;;;;;;;12.60;5.15;;;;;;;;;;5032253;28;20229;-70
2022/02/23 11:01:11;;;;;;;15.00;6.20;;;;;;;;;;5048992;28;20206;-70
2022/02/23 11:03:36;;;;;;;17.13;5.10;;;;;;;;;;5046667;28;20174;-70
2022/02/23 11:06:01;;;;;;;14.93;5.70;;;;;;;;;;5050567;28;20656;-71
2022/02/23 11:08:27;;;;;;;15.70;5.97;;;;;;;;;;5049369;28;20201;-71
2022/02/23 11:10:52;;;;;;;17.52;5.15;;;;;;;;;;5046892;28;20185;-71
2022/02/23 11:13:19;;;;;;;13.98;4.60;;;;;;;;;;5048735;28;20260;-70
2022/02/23 11:15:46;;;;;;;9.70;4.45;;;;;;;;;;5045205;28;20173;-70
2022/02/23 11:18:15;;;;;;;13.75;6.75;;;;;;;;;;5048451;28;20198;-70
2022/02/23 11:20:41;;;;;;;16.10;4.57;;;;;;;;;;5047522;28;20192;-71
2022/02/23 11:23:07;;;;;;;13.65;4.32;;;;;;;;;;5047772;28;20178;-69
2022/02/23 11:25:32;;;;;;;16.63;5.30;;;;;;;;;;5050085;28;20247;-70
2022/02/23 11:28:13;;;;;;;11.25;4.05;;;;;;;;;;5050766;28;20247;-71
2022/02/23 11:30:38;;;;;;;8.05;4.50;;;;;;;;;;5047179;28;20180;-70
2022/02/23 11:33:04;;;;;;;9.27;3.33;;;;;;;;;;5051168;28;20173;-70
2022/02/23 11:35:39;;;;;;;7.47;3.42;;;;;;;;;;5045201;28;20256;-70
2022/02/23 11:38:05;;;;;;;11.38;4.03;;;;;;;;;;5046970;28;20208;-69
2022/02/23 11:40:30;;;;;;;7.30;2.95;;;;;;;;;;5047121;28;20174;-70
2022/02/23 11:42:56;;;;;;;6.25;2.22;;;;;;;;;;5047408;28;20679;-70
2022/02/23 11:45:21;;;;;;;8.65;2.28;;;;;;;;;;5048601;28;20173;-70
2022/02/23 11:47:47;;;;;;;8.88;2.30;;;;;;;;;;5048904;28;20204;-70
2022/02/23 11:50:18;;;;;;;10.68;2.97;;;;;;;;;;5046225;28;20184;-70
2022/02/23 11:52:44;;;;;;;8.18;3.03;;;;;;;;;;5046241;28;20235;-71
2022/02/23 11:55:09;;;;;;;7.70;2.20;;;;;;;;;;5048921;28;20282;-70
2022/02/23 11:57:38;;;;;;;11.93;2.67;;;;;;;;;;5049785;28;20654;-70
2022/02/23 12:00:06;;;;;;;6.68;2.53;;;;;;;;;;5045202;28;20320;-70
2022/02/23 12:02:31;;;;;;;7.93;1.90;;;;;;;;;;5043517;28;20176;-70
2022/02/23 12:04:57;;;;;;;5.93;1.65;;;;;;;;;;5045841;28;20609;-70
2022/02/23 12:07:22;;;;;;;7.97;2.05;;;;;;;;;;5048883;28;20185;-71
2022/02/23 12:09:55;;;;;;;15.40;2.80;;;;;;;;;;5032778;28;20682;-70
2022/02/23 12:12:34;;;;;;;4.75;1.45;;;;;;;;;;5024313;28;20186;-70
2022/02/23 12:15:03;;;;;;;10.82;2.38;;;;;;;;;;5046663;28;20277;-70
2022/02/23 12:17:46;;;;;;;12.65;2.35;;;;;;;;;;5024058;28;20674;-70
2022/02/23 12:20:30;;;;;;;7.00;1.67;;;;;;;;;;5042872;28;20718;-70
2022/02/23 12:23:08;;;;;;;7.38;2.30;;;;;;;;;;5050119;28;20192;-71
2022/02/23 12:25:50;;;;;;;9.45;2.40;;;;;;;;;;5047366;28;20209;-70
2022/02/23 12:28:19;;;;;;;6.72;2.00;;;;;;;;;;5049035;28;20776;-70
2022/02/23 12:30:49;;;;;;;8.55;2.40;;;;;;;;;;5053157;28;20169;-70
2022/02/23 12:33:14;;;;;;;10.40;2.80;;;;;;;;;;5053113;28;20268;-70
2022/02/23 12:35:40;;;;;;;7.13;2.38;;;;;;;;;;5016106;28;20208;-69
2022/02/23 12:38:06;;;;;;;10.93;2.72;;;;;;;;;;5041813;28;20577;-70
2022/02/23 12:40:31;;;;;;;9.63;2.45;;;;;;;;;;5054213;28;20272;-70
2022/02/23 12:43:07;;;;;;;7.93;2.35;;;;;;;;;;5051455;28;20256;-70
2022/02/23 12:45:32;;;;;;;7.18;2.63;;;;;;;;;;5051061;28;20216;-70
2022/02/23 12:48:01;;;;;;;6.32;2.35;;;;;;;;;;5050854;28;20201;-70
2022/02/23 12:50:27;;;;;;;8.20;2.70;;;;;;;;;;5052113;28;20196;-70
2022/02/23 12:52:53;;;;;;;6.95;1.98;;;;;;;;;;5054225;28;20180;-70
2022/02/23 12:55:21;;;;;;;13.65;4.28;;;;;;;;;;5051802;28;20578;-70
2022/02/23 12:57:52;;;;;;;5.35;2.40;;;;;;;;;;5050547;28;20201;-70
2022/02/23 13:00:21;;;;;;;10.77;2.45;;;;;;;;;;5052103;28;20256;-71
2022/02/23 13:02:47;;;;;;;7.10;2.70;;;;;;;;;;5052323;28;20166;-71
2022/02/23 13:05:13;;;;;;;10.10;2.20;;;;;;;;;;5051559;28;20634;-69
2022/02/23 13:07:39;;;;;;;14.27;3.70;;;;;;;;;;5051612;28;20173;-71
2022/02/23 13:10:05;;;;;;;9.32;2.42;;;;;;;;;;5054625;28;20223;-70
2022/02/23 13:12:31;;;;;;;9.00;2.60;;;;;;;;;;5052738;28;20178;-70
2022/02/23 13:14:57;;;;;;;6.55;2.00;;;;;;;;;;5051958;28;20193;-70
2022/02/23 13:17:22;;;;;;;8.65;2.00;;;;;;;;;;5050336;28;20181;-70
2022/02/23 13:19:49;;;;;;;9.20;2.83;;;;;;;;;;5029176;28;20691;-70
2022/02/23 13:22:18;;;;;;;11.02;3.17;;;;;;;;;;5053640;28;20184;-71
2022/02/23 13:24:44;;;;;;;5.78;2.60;;;;;;;;;;5051080;28;20269;-70
2022/02/23 13:27:10;;;;;;;9.00;2.25;;;;;;;;;;5045790;28;20607;-69
2022/02/23 13:29:36;;;;;;;10.05;2.58;;;;;;;;;;5053278;28;20657;-69
2022/02/23 13:32:04;;;;;;;10.18;2.58;;;;;;;;;;5053068;28;20166;-70
2022/02/23 13:34:39;;;;;;;9.80;2.22;;;;;;;;;;5029913;28;20240;-71
2022/02/23 13:37:12;;;;;;;8.63;2.22;;;;;;;;;;5045738;28;20185;-67
2022/02/23 13:40:01;;;;;;;7.95;2.92;;;;;;;;;;5050122;28;20671;-70
2022/02/23 13:42:32;;;;;;;6.10;2.20;;;;;;;;;;5050115;28;20659;-71
2022/02/23 13:45:06;;;;;;;8.88;2.35;;;;;;;;;;5048600;28;20272;-69
2022/02/23 13:47:32;;;;;;;6.47;1.50;;;;;;;;;;5047806;28;20246;-71
2022/02/23 13:50:05;;;;;;;6.25;1.73;;;;;;;;;;5050025;28;20195;-70
2022/02/23 13:52:34;;;;;;;6.78;1.88;;;;;;;;;;5050560;28;20212;-71
2022/02/23 13:55:08;;;;;;;9.35;1.95;;;;;;;;;;5049291;28;20272;-70
2022/02/23 13:57:39;;;;;;;9.10;2.15;;;;;;;;;;5049146;28;20186;-71
2022/02/23 14:00:11;;;;;;;8.40;2.60;;;;;;;;;;5050253;28;20182;-70
2022/02/23 14:02:37;;;;;;;15.93;3.60;;;;;;;;;;5046694;28;20178;-70
2022/02/23 14:05:04;;;;;;;10.60;2.28;;;;;;;;;;5052591;28;20236;-70
2022/02/23 14:07:29;;;;;;;6.82;1.90;;;;;;;;;;5052107;28;20178;-70
2022/02/23 14:09:54;;;;;;;10.95;3.25;;;;;;;;;;5050547;28;20184;-69
2022/02/23 14:12:19;;;;;;;6.65;1.95;;;;;;;;;;5043192;28;20182;-70
2022/02/23 14:14:45;;;;;;;3.75;1.75;;;;;;;;;;5030130;28;20205;-70
2022/02/23 14:17:11;;;;;;;7.90;1.83;;;;;;;;;;5048046;28;20239;-70
2022/02/23 14:19:36;;;;;;;7.20;2.50;;;;;;;;;;5052434;28;20224;-69
2022/02/23 14:22:02;;;;;;;10.60;2.63;;;;;;;;;;5050297;28;20169;-69
2022/02/23 14:24:29;;;;;;;6.97;1.83;;;;;;;;;;5048083;28;20186;-70
2022/02/23 14:27:02;;;;;;;10.15;2.75;;;;;;;;;;5050657;28;20557;-70
2022/02/23 14:29:28;;;;;;;9.05;3.03;;;;;;;;;;5070013;22;20232;-68
2022/02/23 14:31:57;;;;;;;10.48;2.08;;;;;;;;;;5066368;28;20598;-67
2022/02/23 14:34:23;;;;;;;9.45;2.22;;;;;;;;;;5070042;28;20426;-67